createdAt,value
2023-02-24T00:01:29.784Z,4.66
2023-02-24T00:03:31.750Z,4.64
2023-02-24T00:05:35.360Z,4.63
2023-02-24T00:07:37.226Z,4.61
2023-02-24T00:09:40.232Z,4.60
2023-02-24T00:11:43.698Z,4.59
2023-02-24T00:13:46.492Z,4.58
2023-02-24T00:15:58.981Z,4.60
2023-02-24T00:18:02.008Z,4.58
2023-02-24T00:20:04.363Z,4.59
2023-02-24T00:22:08.561Z,4.59
2023-02-24T00:24:10.602Z,4.57
2023-02-24T00:26:13.895Z,4.56
2023-02-24T00:28:15.644Z,4.56
2023-02-24T00:30:18.209Z,4.57
2023-02-24T00:32:19.946Z,4.57
2023-02-24T00:34:23.737Z,4.56
2023-02-24T00:36:27.044Z,4.58
2023-02-24T00:38:28.858Z,4.58
2023-02-24T00:40:30.507Z,4.58
2023-02-24T00:42:32.107Z,4.59
2023-02-24T00:44:35.738Z,4.59
2023-02-24T00:46:39.234Z,4.59
2023-02-24T00:48:41.186Z,4.58
2023-02-24T00:50:44.360Z,4.59
2023-02-24T00:52:46.016Z,4.61
2023-02-24T00:54:49.351Z,4.60
2023-02-24T00:56:51.022Z,4.61
2023-02-24T00:58:53.944Z,4.61
2023-02-24T01:00:55.863Z,4.61
2023-02-24T01:02:57.546Z,4.59
2023-02-24T01:04:59.234Z,4.59
2023-02-24T01:07:03.409Z,4.57
2023-02-24T01:09:05.074Z,4.58
2023-02-24T01:11:07.011Z,4.58
2023-02-24T01:13:08.714Z,4.57
2023-02-24T01:15:11.556Z,4.56
2023-02-24T01:17:14.057Z,4.58
2023-02-24T01:19:17.004Z,4.56
2023-02-24T01:21:20.441Z,4.55
2023-02-24T01:23:23.622Z,4.53
2023-02-24T01:25:25.160Z,4.51
2023-02-24T01:27:26.682Z,4.49
2023-02-24T01:29:28.445Z,4.49
2023-02-24T01:31:30.520Z,4.47
2023-02-24T01:33:33.565Z,4.46
2023-02-24T01:35:35.540Z,4.46
2023-02-24T01:37:37.578Z,4.46
2023-02-24T01:39:40.596Z,4.44
2023-02-24T01:41:45.009Z,4.46
2023-02-24T01:43:58.696Z,4.46
2023-02-24T01:46:00.495Z,4.46
2023-02-24T01:48:06.850Z,4.46
2023-02-24T01:50:09.960Z,4.47
2023-02-24T01:52:16.632Z,4.47
2023-02-24T01:54:21.345Z,4.46
2023-02-24T01:56:24.531Z,4.45
2023-02-24T01:58:29.222Z,4.47
2023-02-24T02:00:31.441Z,4.46
2023-02-24T02:02:33.411Z,4.46
2023-02-24T02:04:40.151Z,4.45
2023-02-24T02:06:41.885Z,4.46
2023-02-24T02:08:44.315Z,4.46
2023-02-24T02:10:46.949Z,4.46
2023-02-24T02:12:50.025Z,4.47
2023-02-24T02:14:54.560Z,4.48
2023-02-24T02:17:13.878Z,4.47
2023-02-24T02:19:50.725Z,4.49
2023-02-24T02:22:05.382Z,4.47
2023-02-24T02:24:35.067Z,4.46
2023-02-24T02:27:15.217Z,4.47
2023-02-24T02:29:38.312Z,4.47
2023-02-24T02:32:30.749Z,4.47
2023-02-24T02:34:45.652Z,4.45
2023-02-24T02:36:55.753Z,4.43
2023-02-24T02:39:08.682Z,4.41
2023-02-24T02:41:20.766Z,4.42
2023-02-24T02:43:31.222Z,4.43
2023-02-24T02:45:40.929Z,4.43
2023-02-24T02:47:48.915Z,4.43
2023-02-24T02:49:58.140Z,4.46
2023-02-24T02:52:05.428Z,4.43
2023-02-24T02:54:16.094Z,4.46
2023-02-24T02:56:21.954Z,4.46
2023-02-24T02:58:30.196Z,4.47
2023-02-24T03:00:36.501Z,4.48
2023-02-24T03:02:43.833Z,4.49
2023-02-24T03:04:51.508Z,4.49
2023-02-24T03:07:00.582Z,4.50
2023-02-24T03:09:07.588Z,4.50
2023-02-24T03:11:15.040Z,4.50
2023-02-24T03:13:21.314Z,4.49
2023-02-24T03:15:28.086Z,4.51
2023-02-24T03:17:33.954Z,4.52
2023-02-24T03:19:39.067Z,4.52
2023-02-24T03:21:44.355Z,4.53
2023-02-24T03:23:50.782Z,4.53
2023-02-24T03:25:56.559Z,4.55
2023-02-24T03:28:02.814Z,4.54
2023-02-24T03:30:11.161Z,4.56
2023-02-24T03:32:18.549Z,4.55
2023-02-24T03:34:27.424Z,4.56
2023-02-24T03:36:29.533Z,4.57
2023-02-24T03:38:33.674Z,4.57
2023-02-24T03:40:37.532Z,4.58
2023-02-24T03:42:42.596Z,4.58
2023-02-24T03:44:44.204Z,4.59
2023-02-24T03:46:45.920Z,4.58
2023-02-24T03:48:53.096Z,4.60
2023-02-24T03:50:55.809Z,4.58
2023-02-24T03:53:08.159Z,4.59
2023-02-24T03:55:25.539Z,4.61
2023-02-24T03:57:40.574Z,4.59
2023-02-24T03:59:50.814Z,4.59
2023-02-24T04:01:56.954Z,4.58
2023-02-24T04:04:05.429Z,4.59
2023-02-24T04:06:13.156Z,4.58
2023-02-24T04:08:17.302Z,4.57
2023-02-24T04:10:24.143Z,4.57
2023-02-24T04:12:30.755Z,4.55
2023-02-24T04:14:40.178Z,4.57
2023-02-24T04:16:48.506Z,4.56
2023-02-24T04:18:51.965Z,4.54
2023-02-24T04:20:56.113Z,4.54
2023-02-24T04:23:04.570Z,4.55
2023-02-24T04:25:09.537Z,4.55
2023-02-24T04:27:13.506Z,4.54
2023-02-24T04:29:20.926Z,4.54
2023-02-24T04:31:25.630Z,4.53
2023-02-24T04:33:27.804Z,4.54
2023-02-24T04:35:29.625Z,4.53
2023-02-24T04:37:31.275Z,4.52
2023-02-24T04:39:32.867Z,4.52
2023-02-24T04:41:34.451Z,4.51
2023-02-24T04:43:36.283Z,4.52
2023-02-24T04:45:39.336Z,4.51
2023-02-24T04:47:40.835Z,4.51
2023-02-24T04:49:42.355Z,4.51
2023-02-24T04:51:44.909Z,4.51
2023-02-24T04:53:46.456Z,4.52
2023-02-24T04:55:48.995Z,4.51
2023-02-24T04:57:53.481Z,4.53
2023-02-24T04:59:54.987Z,4.52
2023-02-24T05:01:58.010Z,4.52
2023-02-24T05:03:59.670Z,4.52
2023-02-24T05:06:01.949Z,4.52
2023-02-24T05:08:06.032Z,4.52
2023-02-24T05:10:08.187Z,4.52
2023-02-24T05:12:09.819Z,4.51
2023-02-24T05:14:13.362Z,4.50
2023-02-24T05:16:17.760Z,4.49
2023-02-24T05:18:21.150Z,4.47
2023-02-24T05:20:22.850Z,4.48
2023-02-24T05:22:24.473Z,4.49
2023-02-24T05:27:29.228Z,4.46
2023-02-24T05:29:32.530Z,4.45
2023-02-24T05:31:34.647Z,4.43
2023-02-24T05:33:38.867Z,4.43
2023-02-24T05:35:40.401Z,4.41
2023-02-24T05:37:42.179Z,4.43
2023-02-24T05:39:43.650Z,4.40
2023-02-24T05:41:47.814Z,4.43
2023-02-24T05:43:51.376Z,4.41
2023-02-24T05:45:52.997Z,4.41
2023-02-24T05:47:54.516Z,4.41
2023-02-24T05:49:57.542Z,4.42
2023-02-24T05:52:00.575Z,4.41
2023-02-24T05:54:02.497Z,4.41
2023-02-24T05:56:04.409Z,4.41
2023-02-24T05:58:06.262Z,4.41
2023-02-24T06:00:09.585Z,4.41
2023-02-24T06:02:13.353Z,4.41
2023-02-24T06:04:16.520Z,4.43
2023-02-24T06:06:19.803Z,4.42
2023-02-24T06:08:21.331Z,4.41
2023-02-24T06:10:23.069Z,4.43
2023-02-24T06:12:26.422Z,4.41
2023-02-24T06:14:28.546Z,4.41
2023-02-24T06:16:30.301Z,4.40
2023-02-24T06:18:32.632Z,4.40
2023-02-24T06:20:34.494Z,4.39
2023-02-24T06:22:37.423Z,4.40
2023-02-24T06:24:39.444Z,4.41
2023-02-24T06:26:41.774Z,4.40
2023-02-24T06:28:43.473Z,4.39
2023-02-24T06:30:45.072Z,4.37
2023-02-24T06:32:46.655Z,4.40
2023-02-24T06:34:48.617Z,4.41
2023-02-24T06:36:50.224Z,4.41
2023-02-24T06:38:53.614Z,4.41
2023-02-24T06:40:57.361Z,4.43
2023-02-24T06:42:58.916Z,4.43
2023-02-24T06:45:00.566Z,4.44
2023-02-24T06:47:04.775Z,4.44
2023-02-24T06:49:06.327Z,4.45
2023-02-24T06:51:10.365Z,4.46
2023-02-24T06:53:11.895Z,4.46
2023-02-24T06:55:15.796Z,4.47
2023-02-24T06:57:17.440Z,4.47
2023-02-24T06:59:19.267Z,4.48
2023-02-24T07:01:23.952Z,4.48
2023-02-24T07:03:29.566Z,4.48
2023-02-24T07:05:33.630Z,4.49
2023-02-24T07:07:35.221Z,4.52
2023-02-24T07:09:36.775Z,4.51
2023-02-24T07:11:41.793Z,4.50
2023-02-24T07:13:43.756Z,4.50
2023-02-24T07:15:45.505Z,4.50
2023-02-24T07:17:48.498Z,4.50
2023-02-24T07:19:50.383Z,4.52
2023-02-24T07:21:56.357Z,4.50
2023-02-24T07:23:59.336Z,4.53
2023-02-24T07:26:06.407Z,4.54
2023-02-24T07:28:10.023Z,4.55
2023-02-24T07:30:12.754Z,4.57
2023-02-24T07:32:14.462Z,4.57
2023-02-24T07:34:16.068Z,4.57
2023-02-24T07:36:18.300Z,4.58
2023-02-24T07:38:20.221Z,4.60
2023-02-24T07:40:22.140Z,4.61
2023-02-24T07:42:23.779Z,4.62
2023-02-24T07:44:26.958Z,4.62
2023-02-24T07:46:30.777Z,4.63
2023-02-24T07:48:32.430Z,4.65
2023-02-24T07:50:34.453Z,4.66
2023-02-24T07:52:36.518Z,4.68
2023-02-24T07:54:38.582Z,4.69
2023-02-24T07:56:40.264Z,4.69
2023-02-24T07:58:42.425Z,4.69
2023-02-24T08:00:45.347Z,4.70
2023-02-24T08:02:48.529Z,4.71
2023-02-24T08:04:50.712Z,4.73
2023-02-24T08:06:53.064Z,4.75
2023-02-24T08:08:56.378Z,4.75
2023-02-24T08:10:58.253Z,4.76
2023-02-24T08:13:00.130Z,4.76
2023-02-24T08:15:02.002Z,4.77
2023-02-24T08:17:05.496Z,4.79
2023-02-24T08:19:08.117Z,4.79
2023-02-24T08:21:09.766Z,4.79
2023-02-24T08:23:11.399Z,4.79
2023-02-24T08:25:14.299Z,4.80
2023-02-24T08:27:16.954Z,4.79
2023-02-24T08:29:18.601Z,4.82
2023-02-24T08:31:20.641Z,4.84
2023-02-24T08:33:23.891Z,4.86
2023-02-24T08:35:28.876Z,4.87
2023-02-24T08:37:32.010Z,4.88
2023-02-24T08:39:33.576Z,4.90
2023-02-24T08:41:35.453Z,4.94
2023-02-24T08:43:39.610Z,4.94
2023-02-24T08:45:42.147Z,4.96
2023-02-24T08:47:43.763Z,4.95
2023-02-24T08:49:47.089Z,4.95
2023-02-24T08:51:49.396Z,4.96
2023-02-24T08:53:52.811Z,4.97
2023-02-24T08:55:54.474Z,4.97
2023-02-24T08:57:56.525Z,4.95
2023-02-24T08:59:58.145Z,4.94
2023-02-24T09:02:04.593Z,4.91
2023-02-24T09:04:09.649Z,4.94
2023-02-24T09:06:14.436Z,4.91
2023-02-24T09:08:15.918Z,4.90
2023-02-24T09:10:19.318Z,4.88
2023-02-24T09:12:21.060Z,4.84
2023-02-24T09:14:27.941Z,4.87
2023-02-24T09:16:30.534Z,4.83
2023-02-24T09:18:32.445Z,4.82
2023-02-24T09:20:34.281Z,4.83
2023-02-24T09:22:37.515Z,4.82
2023-02-24T09:24:39.066Z,4.82
2023-02-24T09:26:40.709Z,4.82
2023-02-24T09:28:42.429Z,4.82
2023-02-24T09:30:46.102Z,4.79
2023-02-24T09:32:48.062Z,4.79
2023-02-24T09:34:49.933Z,4.76
2023-02-24T09:36:51.826Z,4.77
2023-02-24T09:38:56.410Z,4.77
2023-02-24T09:40:59.686Z,4.75
2023-02-24T09:43:03.892Z,4.75
2023-02-24T09:45:11.462Z,4.74
2023-02-24T09:47:16.366Z,4.73
2023-02-24T09:49:19.136Z,4.72
2023-02-24T09:51:23.317Z,4.68
2023-02-24T09:53:25.071Z,4.68
2023-02-24T09:55:37.539Z,4.68
2023-02-24T09:57:46.827Z,4.65
2023-02-24T09:59:54.678Z,4.63
2023-02-24T10:02:03.277Z,4.60
2023-02-24T10:04:21.825Z,4.59
2023-02-24T10:06:25.842Z,4.58
2023-02-24T10:08:34.546Z,4.54
2023-02-24T10:10:37.708Z,4.49
2023-02-24T10:12:39.596Z,4.48
2023-02-24T10:14:52.047Z,4.48
2023-02-24T10:16:56.353Z,4.48
2023-02-24T10:19:05.449Z,4.43
2023-02-24T10:21:20.259Z,4.43
2023-02-24T10:23:28.467Z,4.40
2023-02-24T10:25:45.128Z,4.40
2023-02-24T10:27:58.738Z,4.36
2023-02-24T10:30:08.177Z,4.35
2023-02-24T10:32:19.254Z,4.35
2023-02-24T10:34:23.826Z,4.32
2023-02-24T10:36:26.093Z,4.29
2023-02-24T10:38:27.845Z,4.30
2023-02-24T10:40:29.638Z,4.23
2023-02-24T10:42:32.944Z,4.22
2023-02-24T10:44:34.659Z,4.18
2023-02-24T10:46:41.470Z,4.16
2023-02-24T10:48:52.593Z,4.16
2023-02-24T10:50:56.725Z,4.14
2023-02-24T10:53:04.625Z,4.11
2023-02-24T10:55:13.264Z,4.11
2023-02-24T10:57:15.305Z,4.13
2023-02-24T10:59:19.227Z,4.13
2023-02-24T11:01:31.719Z,4.09
2023-02-24T11:03:34.584Z,4.08
2023-02-24T11:05:41.150Z,4.08
2023-02-24T11:07:42.888Z,4.06
2023-02-24T11:09:44.753Z,4.04
2023-02-24T11:11:47.547Z,4.02
2023-02-24T11:13:50.735Z,3.99
2023-02-24T11:15:55.149Z,4.01
2023-02-24T11:17:59.293Z,3.97
2023-02-24T11:20:03.383Z,3.96
2023-02-24T11:22:05.704Z,4.00
2023-02-24T11:24:15.650Z,3.98
2023-02-24T11:26:21.239Z,3.92
2023-02-24T11:28:40.582Z,3.98
2023-02-24T11:30:52.987Z,3.98
2023-02-24T11:33:17.589Z,3.98
2023-02-24T11:35:26.893Z,4.00
2023-02-24T11:37:36.440Z,4.01
2023-02-24T11:39:51.134Z,4.04
2023-02-24T11:41:57.225Z,4.05
2023-02-24T11:44:04.646Z,4.04
2023-02-24T11:46:12.281Z,4.06
2023-02-24T11:48:19.953Z,4.07
2023-02-24T11:50:39.391Z,4.08
2023-02-24T11:52:45.749Z,4.07
2023-02-24T11:54:52.266Z,4.08
2023-02-24T11:56:56.843Z,4.08
2023-02-24T11:59:04.024Z,4.08
2023-02-24T12:01:12.439Z,4.10
2023-02-24T12:03:22.774Z,4.10
2023-02-24T12:05:27.965Z,4.10
2023-02-24T12:07:34.035Z,4.11
2023-02-24T12:09:43.756Z,4.10
2023-02-24T12:11:53.896Z,4.09
2023-02-24T12:14:06.964Z,4.12
2023-02-24T12:16:14.372Z,4.11
2023-02-24T12:18:24.279Z,4.12
2023-02-24T12:20:30.454Z,4.11
2023-02-24T12:22:40.657Z,4.12
2023-02-24T12:24:47.681Z,4.14
2023-02-24T12:27:03.691Z,4.17
2023-02-24T12:29:49.753Z,4.21
2023-02-24T12:32:01.782Z,4.20
2023-02-24T12:34:12.672Z,4.23
2023-02-24T12:36:30.532Z,4.23
2023-02-24T12:38:48.589Z,4.25
2023-02-24T12:40:57.515Z,4.26
2023-02-24T12:43:11.198Z,4.25
2023-02-24T12:45:19.140Z,4.27
2023-02-24T12:47:33.905Z,4.28
2023-02-24T12:50:10.021Z,4.33
2023-02-24T12:52:20.409Z,4.34
2023-02-24T12:54:27.190Z,4.37
2023-02-24T12:56:41.658Z,4.39
2023-02-24T12:58:46.291Z,4.43
2023-02-24T13:01:02.013Z,4.46
2023-02-24T13:03:19.592Z,4.49
2023-02-24T13:05:28.757Z,4.51
2023-02-24T13:07:44.952Z,4.53
2023-02-24T13:09:52.537Z,4.55
2023-02-24T13:11:57.831Z,4.57
2023-02-24T13:14:06.922Z,4.59
2023-02-24T13:16:11.660Z,4.60
2023-02-24T13:18:24.331Z,4.61
2023-02-24T13:20:30.526Z,4.62
2023-02-24T13:22:33.001Z,4.63
2023-02-24T13:24:35.616Z,4.65
2023-02-24T13:26:37.214Z,4.67
2023-02-24T13:28:38.995Z,4.69
2023-02-24T13:30:42.490Z,4.71
2023-02-24T13:32:46.503Z,4.72
2023-02-24T13:34:48.116Z,4.72
2023-02-24T13:36:51.533Z,4.75
2023-02-24T13:39:05.481Z,4.79
2023-02-24T13:41:35.054Z,4.80
2023-02-24T13:43:36.866Z,4.82
2023-02-24T13:45:39.905Z,4.82
2023-02-24T13:48:19.143Z,4.87
2023-02-24T13:50:23.366Z,4.88
2023-02-24T13:52:37.978Z,4.89
2023-02-24T13:55:03.255Z,4.94
2023-02-24T13:57:21.319Z,4.95
2023-02-24T13:59:57.751Z,4.99
2023-02-24T14:02:02.164Z,4.99
2023-02-24T14:04:14.116Z,4.99
2023-02-24T14:06:22.689Z,5.02
2023-02-24T14:08:38.102Z,5.01
2023-02-24T14:10:45.899Z,5.01
2023-02-24T14:12:49.708Z,4.99
2023-02-24T14:14:52.171Z,5.02
2023-02-24T14:16:53.744Z,5.03
2023-02-24T14:18:57.444Z,5.03
2023-02-24T14:20:59.174Z,5.05
2023-02-24T14:23:01.409Z,5.05
2023-02-24T14:25:05.959Z,5.07
2023-02-24T14:27:07.582Z,5.08
2023-02-24T14:29:09.791Z,5.08
2023-02-24T14:31:15.408Z,5.08
2023-02-24T14:33:25.847Z,5.11
2023-02-24T14:35:33.603Z,5.09
2023-02-24T14:37:35.844Z,5.11
2023-02-24T14:39:37.426Z,5.11
2023-02-24T14:41:40.758Z,5.11
2023-02-24T14:43:42.655Z,5.13
2023-02-24T14:45:48.686Z,5.13
2023-02-24T14:47:50.390Z,5.15
2023-02-24T14:49:54.594Z,5.17
2023-02-24T14:52:02.135Z,5.17
2023-02-24T14:54:08.905Z,5.20
2023-02-24T14:56:13.408Z,5.21
2023-02-24T14:58:21.641Z,5.23
2023-02-24T15:00:26.945Z,5.25
2023-02-24T15:02:33.513Z,5.28
2023-02-24T15:04:37.231Z,5.30
2023-02-24T15:06:42.863Z,5.33
2023-02-24T15:08:48.681Z,5.32
2023-02-24T15:10:50.786Z,5.33
2023-02-24T15:12:59.145Z,5.35
2023-02-24T15:15:08.210Z,5.33
2023-02-24T15:17:16.811Z,5.36
2023-02-24T15:19:25.453Z,5.36
2023-02-24T15:21:30.230Z,5.37
2023-02-24T15:23:34.188Z,5.36
2023-02-24T15:25:43.135Z,5.37
2023-02-24T15:27:51.142Z,5.38
2023-02-24T15:30:07.198Z,5.39
2023-02-24T15:32:15.922Z,5.36
2023-02-24T15:34:19.992Z,5.37
2023-02-24T15:36:25.462Z,5.38
2023-02-24T15:38:33.500Z,5.38
2023-02-24T15:40:35.442Z,5.38
2023-02-24T15:42:37.167Z,5.35
2023-02-24T15:44:38.808Z,5.37
2023-02-24T15:46:41.923Z,5.36
2023-02-24T15:48:45.030Z,5.36
2023-02-24T15:50:46.808Z,5.36
2023-02-24T15:52:48.953Z,5.35
2023-02-24T15:54:51.909Z,5.36
2023-02-24T15:56:53.755Z,5.37
2023-02-24T15:58:55.407Z,5.34
2023-02-24T16:00:57.160Z,5.36
2023-02-24T16:03:00.341Z,5.35
2023-02-24T16:05:01.993Z,5.34
2023-02-24T16:07:05.893Z,5.34
2023-02-24T16:09:08.645Z,5.35
2023-02-24T16:11:10.950Z,5.34
2023-02-24T16:13:19.546Z,5.35
2023-02-24T16:15:25.395Z,5.34
2023-02-24T16:17:32.410Z,5.31
2023-02-24T16:19:35.786Z,5.30
2023-02-24T16:21:37.376Z,5.32
2023-02-24T16:23:39.192Z,5.31
2023-02-24T16:25:43.457Z,5.30
2023-02-24T16:27:45.138Z,5.29
2023-02-24T16:29:46.998Z,5.29
2023-02-24T16:31:48.723Z,5.27
2023-02-24T16:33:54.838Z,5.29
2023-02-24T16:35:58.782Z,5.30
2023-02-24T16:38:00.882Z,5.28
2023-02-24T16:40:02.958Z,5.29
2023-02-24T16:42:04.847Z,5.28
2023-02-24T16:44:06.496Z,5.27
2023-02-24T16:46:14.461Z,5.27
2023-02-24T16:48:20.813Z,5.26
2023-02-24T16:50:26.263Z,5.26
2023-02-24T16:52:29.304Z,5.25
2023-02-24T16:54:31.068Z,5.22
2023-02-24T16:56:32.732Z,5.23
2023-02-24T16:58:35.527Z,5.21
2023-02-24T17:00:38.974Z,5.23
2023-02-24T17:02:43.207Z,5.23
2023-02-24T17:04:44.804Z,5.21
2023-02-24T17:06:46.454Z,5.22
2023-02-24T17:08:49.489Z,5.20
2023-02-24T17:10:51.873Z,5.19
2023-02-24T17:12:53.516Z,5.19
2023-02-24T17:14:55.040Z,5.20
2023-02-24T17:16:56.602Z,5.20
2023-02-24T17:18:58.319Z,5.19
2023-02-24T17:20:59.825Z,5.20
2023-02-24T17:23:01.598Z,5.18
2023-02-24T17:25:05.715Z,5.19
2023-02-24T17:27:07.361Z,5.19
2023-02-24T17:29:09.018Z,5.16
2023-02-24T17:31:10.668Z,5.17
2023-02-24T17:33:12.617Z,5.16
2023-02-24T17:35:14.294Z,5.17
2023-02-24T17:37:17.774Z,5.16
2023-02-24T17:39:19.857Z,5.16
2023-02-24T17:41:24.369Z,5.15
2023-02-24T17:43:26.022Z,5.14
2023-02-24T17:45:27.662Z,5.14
2023-02-24T17:47:30.195Z,5.13
2023-02-24T17:49:32.512Z,5.13
2023-02-24T17:51:34.139Z,5.10
2023-02-24T17:53:35.801Z,5.13
2023-02-24T17:55:37.610Z,5.13
2023-02-24T17:57:41.304Z,5.11
2023-02-24T17:59:43.599Z,5.09
2023-02-24T18:01:45.218Z,5.10
2023-02-24T18:03:46.932Z,5.08
2023-02-24T18:05:48.629Z,5.09
2023-02-24T18:07:50.465Z,5.08
2023-02-24T18:09:52.187Z,5.07
2023-02-24T18:11:53.882Z,5.08
2023-02-24T18:14:00.527Z,5.07
2023-02-24T18:16:02.264Z,5.08
2023-02-24T18:18:04.804Z,5.08
2023-02-24T18:20:08.359Z,5.06
2023-02-24T18:22:12.465Z,5.08
2023-02-24T18:24:14.653Z,5.09
2023-02-24T18:26:16.603Z,5.08
2023-02-24T18:28:18.337Z,5.07
2023-02-24T18:30:21.542Z,5.08
2023-02-24T18:32:23.258Z,5.07
2023-02-24T18:34:25.011Z,5.08
2023-02-24T18:36:27.016Z,5.08
2023-02-24T18:38:29.228Z,5.08
2023-02-24T18:40:30.796Z,5.09
2023-02-24T18:42:32.584Z,5.09
2023-02-24T18:44:34.684Z,5.10
2023-02-24T18:46:37.848Z,5.09
2023-02-24T18:48:40.023Z,5.11
2023-02-24T18:50:41.565Z,5.09
2023-02-24T18:52:43.840Z,5.10
2023-02-24T18:54:45.671Z,5.12
2023-02-24T18:56:47.243Z,5.11
2023-02-24T18:58:49.018Z,5.12
2023-02-24T19:00:50.551Z,5.13
2023-02-24T19:02:53.729Z,5.13
2023-02-24T19:04:55.334Z,5.12
2023-02-24T19:06:56.861Z,5.13
2023-02-24T19:09:00.532Z,5.15
2023-02-24T19:11:08.098Z,5.14
2023-02-24T19:13:10.299Z,5.15
2023-02-24T19:15:11.906Z,5.13
2023-02-24T19:17:13.427Z,5.14
2023-02-24T19:19:17.362Z,5.14
2023-02-24T19:21:19.543Z,5.14
2023-02-24T19:23:21.195Z,5.13
2023-02-24T19:25:22.728Z,5.13
2023-02-24T19:27:24.373Z,5.14
2023-02-24T19:29:27.945Z,5.14
2023-02-24T19:31:32.446Z,5.13
2023-02-24T19:33:34.143Z,5.13
2023-02-24T19:35:39.939Z,5.13
2023-02-24T19:37:41.586Z,5.15
2023-02-24T19:39:43.295Z,5.14
2023-02-24T19:41:46.249Z,5.14
2023-02-24T19:43:48.673Z,5.14
2023-02-24T19:45:50.345Z,5.14
2023-02-24T19:47:52.259Z,5.15
2023-02-24T19:49:54.046Z,5.14
2023-02-24T19:51:57.500Z,5.15
2023-02-24T19:54:00.787Z,5.14
2023-02-24T19:56:02.459Z,5.15
2023-02-24T19:58:04.224Z,5.16
2023-02-24T20:00:07.635Z,5.17
2023-02-24T20:02:09.960Z,5.15
2023-02-24T20:04:11.566Z,5.16
2023-02-24T20:06:17.432Z,5.16
2023-02-24T20:08:20.418Z,5.15
2023-02-24T20:10:22.242Z,5.17
2023-02-24T20:12:24.064Z,5.16
2023-02-24T20:14:28.326Z,5.16
2023-02-24T20:16:31.191Z,5.14
2023-02-24T20:18:33.023Z,5.15
2023-02-24T20:20:36.166Z,5.14
2023-02-24T20:22:37.773Z,5.13
2023-02-24T20:24:40.771Z,5.12
2023-02-24T20:26:44.717Z,5.11
2023-02-24T20:28:47.363Z,5.11
2023-02-24T20:30:50.519Z,5.10
2023-02-24T20:32:52.439Z,5.10
2023-02-24T20:34:54.046Z,5.09
2023-02-24T20:36:55.746Z,5.05
2023-02-24T20:38:58.853Z,5.06
2023-02-24T20:41:01.981Z,5.06
2023-02-24T20:43:04.837Z,5.04
2023-02-24T20:45:08.155Z,5.02
2023-02-24T20:47:09.851Z,5.03
2023-02-24T20:49:13.443Z,5.01
2023-02-24T20:51:15.509Z,5.00
2023-02-24T20:53:17.548Z,4.99
2023-02-24T20:55:19.829Z,4.98
2023-02-24T20:57:22.761Z,4.97
2023-02-24T20:59:24.365Z,4.95
2023-02-24T21:01:26.231Z,4.95
2023-02-24T21:03:27.851Z,4.92
2023-02-24T21:05:29.720Z,4.94
2023-02-24T21:07:31.295Z,4.91
2023-02-24T21:09:33.027Z,4.91
2023-02-24T21:11:34.895Z,4.89
2023-02-24T21:13:39.628Z,4.88
2023-02-24T21:15:49.484Z,4.87
2023-02-24T21:17:51.117Z,4.85
2023-02-24T21:19:52.906Z,4.83
2023-02-24T21:21:54.633Z,4.82
2023-02-24T21:23:56.246Z,4.80
2023-02-24T21:25:57.853Z,4.79
2023-02-24T21:27:59.374Z,4.76
2023-02-24T21:30:02.813Z,4.75
2023-02-24T21:32:04.446Z,4.74
2023-02-24T21:34:06.161Z,4.72
2023-02-24T21:36:10.849Z,4.70
2023-02-24T21:38:12.518Z,4.68
2023-02-24T21:40:14.582Z,4.66
2023-02-24T21:42:16.167Z,4.66
2023-02-24T21:44:17.718Z,4.63
2023-02-24T21:46:21.048Z,4.62
2023-02-24T21:48:23.189Z,4.60
2023-02-24T21:50:25.045Z,4.60
2023-02-24T21:52:26.675Z,4.58
2023-02-24T21:54:28.418Z,4.58
2023-02-24T21:56:30.416Z,4.55
2023-02-24T21:58:32.666Z,4.55
2023-02-24T22:00:34.324Z,4.55
2023-02-24T22:02:37.604Z,4.55
2023-02-24T22:04:39.728Z,4.55
2023-02-24T22:06:42.210Z,4.53
2023-02-24T22:08:44.006Z,4.53
2023-02-24T22:10:45.809Z,4.51
2023-02-24T22:12:48.843Z,4.51
2023-02-24T22:14:50.634Z,4.51
2023-02-24T22:16:52.176Z,4.49
2023-02-24T22:18:55.577Z,4.48
2023-02-24T22:20:57.098Z,4.48
2023-02-24T22:22:58.967Z,4.46
2023-02-24T22:25:00.792Z,4.43
2023-02-24T22:27:02.425Z,4.43
2023-02-24T22:29:06.202Z,4.41
2023-02-24T22:31:09.775Z,4.40
2023-02-24T22:33:11.678Z,4.40
2023-02-24T22:35:14.636Z,4.40
2023-02-24T22:37:16.710Z,4.39
2023-02-24T22:39:18.281Z,4.37
2023-02-24T22:41:21.669Z,4.36
2023-02-24T22:43:23.272Z,4.35
2023-02-24T22:45:25.149Z,4.34
2023-02-24T22:47:26.780Z,4.32
2023-02-24T22:49:28.781Z,4.31
2023-02-24T22:51:32.168Z,4.28
2023-02-24T22:53:38.952Z,4.30
2023-02-24T22:55:45.774Z,4.28
2023-02-24T22:57:47.374Z,4.27
2023-02-24T22:59:48.949Z,4.26
2023-02-24T23:01:50.455Z,4.24
2023-02-24T23:03:52.581Z,4.23
2023-02-24T23:05:55.157Z,4.21
2023-02-24T23:07:58.173Z,4.22
2023-02-24T23:09:59.822Z,4.20
2023-02-24T23:12:01.442Z,4.19
2023-02-24T23:14:05.656Z,4.19
2023-02-24T23:16:09.812Z,4.17
2023-02-24T23:18:11.719Z,4.17
2023-02-24T23:20:13.475Z,4.14
2023-02-24T23:22:15.044Z,4.14
2023-02-24T23:24:20.015Z,4.14
2023-02-24T23:26:22.015Z,4.13
2023-02-24T23:28:25.016Z,4.11
2023-02-24T23:30:26.646Z,4.09
2023-02-24T23:32:28.397Z,4.07
2023-02-24T23:34:30.150Z,4.05
2023-02-24T23:36:31.805Z,4.06
2023-02-24T23:38:33.716Z,4.05
2023-02-24T23:40:49.545Z,4.02
2023-02-24T23:42:52.529Z,4.03
2023-02-24T23:44:54.110Z,4.00
2023-02-24T23:46:55.833Z,4.01
2023-02-24T23:48:57.718Z,3.98
2023-02-24T23:51:02.834Z,4.00
2023-02-24T23:53:06.069Z,3.97
2023-02-24T23:55:08.601Z,3.97
2023-02-24T23:57:11.511Z,3.97
2023-02-24T23:59:13.531Z,3.97
